Time;durP1;ratioP1;P1;durP2;ratioP2;P2;SDS_P1;SDS_P2;PMS_P1;PMS_P2;Temp;Humidity;BMP_temperature;BMP_pressure;BME280_temperature;BME280_humidity;BME280_pressure;Samples;Min_cycle;Max_cycle;Signal;HPM_P1;HPM_P2
2022/12/25 00:02:03;;;;;;;178.50;88.95;;;9.30;99.90;;;;;;4806808;29;20051;-94
2022/12/25 00:05:47;;;;;;;200.98;93.20;;;9.10;99.90;;;;;;4811077;29;20075;-94
2022/12/25 00:11:30;;;;;;;286.42;109.82;;;8.90;99.90;;;;;;5366839;23;20044;-93
2022/12/25 00:15:06;;;;;;;278.42;108.13;;;8.90;99.90;;;;;;4899836;29;20059;-93
2022/12/25 00:17:43;;;;;;;219.52;96.85;;;8.80;99.90;;;;;;4914535;29;20064;-92
2022/12/25 00:21:09;;;;;;;230.35;97.75;;;8.70;99.90;;;;;;4886046;29;20064;-93
2022/12/25 00:27:11;;;;;;;177.07;87.53;;;8.60;99.90;;;;;;5181450;23;20561;-93
2022/12/25 00:38:26;;;;;;;192.48;92.95;;;8.50;99.90;;;;;;4939844;23;20091;-92
2022/12/25 00:41:01;;;;;;;166.20;85.68;;;8.50;99.90;;;;;;4891369;29;20524;-93
2022/12/25 00:43:45;;;;;;;176.90;89.53;;;8.50;99.90;;;;;;4914721;29;20043;-92
2022/12/25 00:46:36;;;;;;;186.32;93.18;;;8.50;99.90;;;;;;4913636;29;20111;-93
2022/12/25 00:49:08;;;;;;;175.23;89.32;;;8.40;99.90;;;;;;4915180;29;20041;-93
2022/12/25 00:51:39;;;;;;;182.40;88.28;;;8.40;99.90;;;;;;4895474;29;20017;-93
2022/12/25 00:56:55;;;;;;;164.10;81.22;;;8.40;99.90;;;;;;4910976;29;20501;-93
2022/12/25 05:20:10;;;;;;;141.13;49.08;;;7.80;99.90;;;;;;2316650;23;20436;-92
2022/12/25 05:22:36;;;;;;;242.70;60.53;;;7.80;99.90;;;;;;4873853;29;20133;-94
2022/12/25 05:25:07;;;;;;;285.33;67.45;;;7.80;99.90;;;;;;4871064;29;20432;-92
2022/12/25 05:27:40;;;;;;;238.45;63.08;;;7.90;99.90;;;;;;4846763;29;20061;-93
2022/12/25 05:30:22;;;;;;;346.52;75.43;;;7.90;99.90;;;;;;4832469;29;20042;-91
2022/12/25 05:33:03;;;;;;;430.20;79.75;;;7.90;99.90;;;;;;4907978;23;20071;-94
2022/12/25 05:35:30;;;;;;;253.73;60.45;;;7.90;99.90;;;;;;4892027;29;20047;-94
2022/12/25 05:37:57;;;;;;;169.98;50.05;;;7.90;99.90;;;;;;4887891;29;20032;-93
2022/12/25 05:40:24;;;;;;;249.48;57.83;;;7.90;99.90;;;;;;4903225;29;20032;-94
2022/12/25 05:42:51;;;;;;;303.02;77.20;;;8.00;99.90;;;;;;4902424;29;20039;-92
2022/12/25 05:45:18;;;;;;;138.57;47.22;;;7.90;99.90;;;;;;4903839;29;20032;-92
2022/12/25 05:47:45;;;;;;;295.58;69.93;;;8.00;99.90;;;;;;4928319;29;20058;-93
2022/12/25 05:50:12;;;;;;;189.27;62.10;;;7.90;99.90;;;;;;4910356;29;20431;-95
2022/12/25 05:52:41;;;;;;;167.80;54.80;;;8.00;99.90;;;;;;4902616;29;20040;-92
2022/12/25 05:55:09;;;;;;;174.38;54.88;;;8.00;99.90;;;;;;4927812;29;20059;-93
2022/12/25 05:57:42;;;;;;;178.90;57.83;;;8.00;99.90;;;;;;4904828;29;20028;-93
2022/12/25 06:00:12;;;;;;;189.30;60.78;;;8.00;99.90;;;;;;4903044;29;20095;-93
2022/12/25 06:02:42;;;;;;;178.73;60.78;;;8.00;99.90;;;;;;4918457;29;20087;-91
2022/12/25 06:05:12;;;;;;;102.85;43.55;;;8.10;99.90;;;;;;4901291;29;20028;-92
2022/12/25 06:07:39;;;;;;;120.93;46.08;;;8.10;99.90;;;;;;4903120;29;20087;-93
2022/12/25 06:10:09;;;;;;;135.98;48.78;;;8.10;99.90;;;;;;4900987;29;20451;-91
2022/12/25 06:12:42;;;;;;;116.28;45.22;;;8.10;99.90;;;;;;4901278;29;20063;-91
2022/12/25 06:15:09;;;;;;;163.05;56.30;;;8.10;99.90;;;;;;4916736;29;20036;-91
2022/12/25 06:17:39;;;;;;;170.15;55.60;;;8.10;99.90;;;;;;4910199;29;20025;-91
2022/12/25 06:20:09;;;;;;;155.10;53.30;;;8.10;99.90;;;;;;4901873;29;20106;-92
2022/12/25 06:22:36;;;;;;;136.50;47.08;;;8.20;99.90;;;;;;4910560;29;20516;-93
2022/12/25 06:27:48;;;;;;;148.77;51.22;;;8.30;99.90;;;;;;4886645;29;20048;-92
2022/12/25 06:30:15;;;;;;;164.40;56.88;;;8.30;99.90;;;;;;4882423;29;20486;-93
2022/12/25 06:32:42;;;;;;;122.43;49.38;;;8.40;99.90;;;;;;4882286;29;20041;-93
2022/12/25 06:35:09;;;;;;;133.82;47.97;;;8.30;99.90;;;;;;4882263;29;20537;-92
2022/12/25 06:37:42;;;;;;;153.75;49.78;;;8.40;99.90;;;;;;4882190;29;20064;-93
2022/12/25 06:40:09;;;;;;;154.10;49.08;;;8.40;99.90;;;;;;4882256;29;20059;-93
2022/12/25 06:42:36;;;;;;;263.90;63.30;;;8.30;99.90;;;;;;4885422;29;20020;-93
2022/12/25 06:45:03;;;;;;;142.85;44.50;;;8.40;99.90;;;;;;4882290;29;20040;-91
2022/12/25 06:47:30;;;;;;;128.25;42.53;;;8.40;99.90;;;;;;4884251;29;20036;-92
2022/12/25 06:49:57;;;;;;;205.15;57.35;;;8.50;99.90;;;;;;4885744;29;20028;-93
2022/12/25 06:52:23;;;;;;;234.20;58.38;;;8.50;99.90;;;;;;4870333;29;20048;-94
2022/12/25 06:54:50;;;;;;;90.40;35.67;;;8.60;99.90;;;;;;4886005;29;20060;-93
2022/12/25 06:57:18;;;;;;;184.02;52.15;;;8.70;99.90;;;;;;4887589;29;20139;-92
2022/12/25 06:59:44;;;;;;;215.07;54.75;;;8.80;99.90;;;;;;4886054;29;20033;-92
2022/12/25 07:02:20;;;;;;;199.45;49.75;;;8.90;99.90;;;;;;4886852;29;20036;-93
2022/12/25 07:04:47;;;;;;;160.48;47.97;;;8.90;99.90;;;;;;4889686;29;20028;-93
2022/12/25 07:07:14;;;;;;;183.60;50.25;;;9.00;99.90;;;;;;4888605;29;20056;-91
2022/12/25 07:09:41;;;;;;;217.45;50.67;;;9.10;99.90;;;;;;4869529;29;20063;-92
2022/12/25 07:12:22;;;;;;;182.05;45.42;;;9.20;99.90;;;;;;4885122;29;20033;-93
2022/12/25 07:14:49;;;;;;;125.60;37.70;;;9.20;99.90;;;;;;4885128;29;20033;-91
2022/12/25 07:17:16;;;;;;;141.93;35.63;;;9.40;99.90;;;;;;4884897;29;20052;-92
2022/12/25 07:19:44;;;;;;;103.05;32.25;;;9.50;99.90;;;;;;4885005;29;20482;-91
2022/12/25 07:22:15;;;;;;;91.07;33.28;;;9.60;99.90;;;;;;4885341;29;20047;-90
2022/12/25 07:24:42;;;;;;;99.70;32.63;;;9.70;99.90;;;;;;4885552;29;20036;-90
2022/12/25 07:27:12;;;;;;;172.10;39.45;;;9.80;99.90;;;;;;4884882;29;20108;-91
2022/12/25 07:29:39;;;;;;;117.75;35.83;;;9.90;99.90;;;;;;4869331;29;20050;-93
2022/12/25 07:32:18;;;;;;;153.48;38.85;;;10.10;99.90;;;;;;4869183;29;20037;-90
2022/12/25 07:34:45;;;;;;;117.55;38.70;;;10.10;99.90;;;;;;4869088;29;20168;-93
2022/12/25 07:37:12;;;;;;;98.25;37.05;;;10.10;99.90;;;;;;4869291;29;20040;-92
2022/12/25 07:39:39;;;;;;;128.70;43.97;;;10.20;99.90;;;;;;4869496;29;20043;-90
2022/12/25 07:42:06;;;;;;;91.00;36.53;;;10.30;99.90;;;;;;4884824;29;20036;-92
2022/12/25 07:44:33;;;;;;;84.72;36.58;;;10.60;99.90;;;;;;4869083;29;20060;-91
2022/12/25 07:46:59;;;;;;;69.38;34.60;;;10.80;99.90;;;;;;4884615;29;20032;-91
2022/12/25 07:49:26;;;;;;;71.32;34.35;;;11.00;99.90;;;;;;4884587;29;20024;-90
2022/12/25 07:51:53;;;;;;;56.85;31.85;;;11.20;99.90;;;;;;4868908;29;20045;-91
2022/12/25 07:54:20;;;;;;;56.30;31.45;;;11.50;99.90;;;;;;4869004;29;20025;-90
2022/12/25 07:56:51;;;;;;;56.95;31.58;;;11.70;99.90;;;;;;4864835;29;20032;-91
2022/12/25 07:59:18;;;;;;;51.33;30.13;;;11.80;99.90;;;;;;4869350;29;20033;-90
2022/12/25 08:01:47;;;;;;;48.45;29.25;;;11.80;99.90;;;;;;4870047;29;20039;-91
2022/12/25 08:04:17;;;;;;;48.45;30.35;;;12.10;99.90;;;;;;4868543;29;20032;-89
2022/12/25 08:06:44;;;;;;;49.75;31.25;;;12.10;99.90;;;;;;4884375;29;20043;-91
2022/12/25 08:09:14;;;;;;;44.88;27.80;;;12.20;99.90;;;;;;4884563;29;20056;-90
2022/12/25 08:11:50;;;;;;;49.83;31.63;;;12.30;99.90;;;;;;4868545;29;20032;-91
2022/12/25 08:14:17;;;;;;;48.65;30.80;;;12.50;99.90;;;;;;4868785;29;20033;-91
2022/12/25 08:16:45;;;;;;;40.17;26.90;;;12.60;99.90;;;;;;4884955;29;20044;-91
2022/12/25 08:19:13;;;;;;;41.03;26.23;;;12.80;99.90;;;;;;4884091;29;20036;-92
2022/12/25 08:21:40;;;;;;;43.40;29.75;;;12.90;99.90;;;;;;4883655;29;20044;-89
2022/12/25 08:24:07;;;;;;;43.67;27.52;;;13.10;99.90;;;;;;4883892;29;20426;-89
2022/12/25 08:26:33;;;;;;;42.55;27.58;;;13.20;99.90;;;;;;4868197;29;20106;-91
2022/12/25 08:29:00;;;;;;;54.17;31.45;;;13.30;99.90;;;;;;4868943;29;20500;-91
2022/12/25 08:31:29;;;;;;;43.88;28.48;;;13.50;99.90;;;;;;4869532;29;20516;-91
2022/12/25 08:33:57;;;;;;;42.05;26.23;;;13.60;99.90;;;;;;4869450;29;20043;-91
2022/12/25 08:36:27;;;;;;;36.17;25.25;;;13.60;99.90;;;;;;4884131;29;20035;-90
2022/12/25 08:38:54;;;;;;;38.88;25.88;;;13.70;99.90;;;;;;4868156;29;20111;-91
2022/12/25 08:41:22;;;;;;;37.78;26.35;;;13.90;99.90;;;;;;4883816;29;20044;-91
2022/12/25 08:43:49;;;;;;;47.40;27.38;;;14.10;99.90;;;;;;4883645;29;20036;-91
2022/12/25 08:46:16;;;;;;;45.17;28.77;;;14.20;99.90;;;;;;4867918;29;20028;-90
2022/12/25 08:48:44;;;;;;;41.70;27.92;;;14.30;99.90;;;;;;4868023;29;20037;-89
2022/12/25 08:51:15;;;;;;;42.42;28.70;;;14.40;99.90;;;;;;4867989;29;20482;-91
2022/12/25 08:53:46;;;;;;;39.45;27.50;;;14.40;99.90;;;;;;4883332;29;20032;-90
2022/12/25 08:56:14;;;;;;;44.10;29.58;;;14.50;99.90;;;;;;4867835;29;20119;-91
2022/12/25 08:58:42;;;;;;;49.85;31.17;;;14.60;99.90;;;;;;4867791;29;20037;-89
2022/12/25 09:01:12;;;;;;;46.60;27.80;;;14.60;99.90;;;;;;4883224;29;20076;-89
2022/12/25 09:03:39;;;;;;;41.67;28.27;;;14.60;99.90;;;;;;4867952;29;20032;-89
2022/12/25 09:06:29;;;;;;;41.63;28.25;;;14.60;99.90;;;;;;4883182;29;20052;-90
2022/12/25 09:08:56;;;;;;;37.10;25.45;;;14.70;99.90;;;;;;4842341;29;20133;-89
2022/12/25 09:11:23;;;;;;;38.25;25.60;;;14.80;99.90;;;;;;4827203;29;20078;-90
2022/12/25 09:13:50;;;;;;;38.10;24.90;;;14.80;99.90;;;;;;4827112;29;20072;-91
2022/12/25 09:16:20;;;;;;;30.85;21.35;;;14.90;99.90;;;;;;4826811;29;20103;-90
2022/12/25 09:18:47;;;;;;;30.30;21.92;;;14.90;99.90;;;;;;4826899;29;20034;-91
2022/12/25 09:21:15;;;;;;;33.10;20.50;;;14.80;99.90;;;;;;4827366;29;20461;-90
2022/12/25 09:23:43;;;;;;;28.92;20.10;;;14.90;99.90;;;;;;4827168;29;20061;-91
2022/12/25 09:26:15;;;;;;;26.63;18.23;;;15.10;99.90;;;;;;4826664;29;20037;-91
2022/12/25 09:28:45;;;;;;;29.27;19.42;;;15.20;99.90;;;;;;4826969;29;20109;-90
2022/12/25 09:31:15;;;;;;;30.50;20.70;;;15.20;99.90;;;;;;4826728;29;20484;-90
2022/12/25 09:33:42;;;;;;;28.60;20.02;;;15.30;99.90;;;;;;4827386;29;20054;-89
2022/12/25 09:36:10;;;;;;;26.20;18.17;;;15.60;99.90;;;;;;4830399;29;20033;-90
2022/12/25 09:38:46;;;;;;;28.45;20.20;;;15.60;99.90;;;;;;4828422;29;20099;-89
2022/12/25 09:41:49;;;;;;;26.90;19.60;;;15.70;99.90;;;;;;4826696;29;20086;-90
2022/12/25 09:44:42;;;;;;;21.42;17.92;;;15.70;99.90;;;;;;4826512;29;20125;-90
2022/12/25 09:47:13;;;;;;;24.30;19.10;;;15.40;99.90;;;;;;4866988;29;20035;-89
2022/12/25 09:49:49;;;;;;;26.40;20.88;;;15.40;99.90;;;;;;4882553;29;20084;-90
2022/12/25 09:52:25;;;;;;;27.05;20.27;;;15.50;99.90;;;;;;4882406;29;20035;-90
2022/12/25 09:55:12;;;;;;;28.83;20.65;;;15.60;99.90;;;;;;4882657;29;20482;-90
2022/12/25 09:57:39;;;;;;;30.25;22.55;;;15.60;99.90;;;;;;4882578;29;20032;-90
2022/12/25 10:00:17;;;;;;;30.02;20.48;;;15.70;99.90;;;;;;4882619;29;20044;-90
2022/12/25 10:03:04;;;;;;;30.13;21.67;;;15.90;99.90;;;;;;4866881;29;20112;-90
2022/12/25 10:06:08;;;;;;;32.15;24.27;;;15.90;99.90;;;;;;4866765;29;20029;-89
2022/12/25 10:09:12;;;;;;;31.48;23.50;;;15.80;99.90;;;;;;4882454;29;20581;-90
2022/12/25 10:12:09;;;;;;;37.50;26.40;;;15.70;99.90;;;;;;4867031;29;20393;-89
2022/12/25 10:15:13;;;;;;;33.65;22.95;;;15.70;99.90;;;;;;4882334;29;20281;-89
2022/12/25 10:17:57;;;;;;;31.77;22.85;;;15.90;99.90;;;;;;4882377;29;20478;-90
2022/12/25 10:20:53;;;;;;;31.60;23.90;;;15.90;99.90;;;;;;4882451;29;20044;-90
2022/12/25 10:23:39;;;;;;;39.78;26.85;;;15.80;99.90;;;;;;4870197;29;20059;-90
2022/12/25 10:26:23;;;;;;;39.15;23.55;;;15.80;99.90;;;;;;4887287;29;20049;-90
2022/12/25 10:29:08;;;;;;;37.78;26.20;;;15.70;99.90;;;;;;4886234;29;20032;-89
2022/12/25 10:31:36;;;;;;;36.10;23.55;;;15.60;99.90;;;;;;4886375;29;20406;-92
2022/12/25 10:34:04;;;;;;;37.38;24.73;;;15.70;99.90;;;;;;4886065;29;20037;-89
2022/12/25 10:36:32;;;;;;;40.03;26.05;;;15.80;99.90;;;;;;4888444;29;20029;-92
2022/12/25 10:38:58;;;;;;;36.22;25.20;;;15.90;99.90;;;;;;4871771;29;20115;-91
2022/12/25 10:41:55;;;;;;;31.38;23.05;;;15.90;99.90;;;;;;4890622;29;20045;-91
2022/12/25 10:44:23;;;;;;;35.90;23.63;;;16.10;99.90;;;;;;4886994;29;20040;-92
2022/12/25 10:46:54;;;;;;;40.10;26.70;;;16.20;99.90;;;;;;4885882;29;20029;-92
2022/12/25 10:49:23;;;;;;;35.72;24.77;;;16.20;99.90;;;;;;4885882;29;20115;-92
2022/12/25 10:51:50;;;;;;;33.67;22.02;;;16.00;99.90;;;;;;4869974;29;20447;-93
2022/12/25 10:54:34;;;;;;;37.90;24.48;;;16.00;99.90;;;;;;4870291;29;20024;-92
2022/12/25 10:57:09;;;;;;;27.07;18.50;;;16.30;99.90;;;;;;4885883;29;20036;-93
2022/12/25 10:59:45;;;;;;;21.58;16.92;;;16.20;99.90;;;;;;4870406;29;20033;-92
2022/12/25 11:02:20;;;;;;;27.77;18.05;;;16.00;99.90;;;;;;4886796;29;20040;-93
2022/12/25 11:04:48;;;;;;;27.20;19.42;;;15.90;99.90;;;;;;4871616;29;20184;-92
2022/12/25 11:07:22;;;;;;;25.80;17.85;;;15.90;99.90;;;;;;4885576;29;20033;-92
2022/12/25 11:09:51;;;;;;;22.50;15.50;;;15.90;99.90;;;;;;4869812;29;20028;-92
2022/12/25 11:12:23;;;;;;;21.33;15.93;;;16.00;99.90;;;;;;4886063;29;20314;-92
2022/12/25 11:14:57;;;;;;;23.10;16.48;;;16.10;99.90;;;;;;4891093;29;20390;-91
2022/12/25 11:17:25;;;;;;;26.20;17.60;;;16.20;99.90;;;;;;4869715;29;20040;-91
2022/12/25 11:19:55;;;;;;;24.73;18.08;;;16.00;99.90;;;;;;4885521;29;20021;-92
2022/12/25 11:22:23;;;;;;;25.05;17.42;;;16.10;99.90;;;;;;4869637;29;20068;-93
2022/12/25 11:24:49;;;;;;;30.17;18.42;;;16.20;99.90;;;;;;4870545;29;20443;-92
2022/12/25 11:27:28;;;;;;;25.02;19.05;;;16.20;99.90;;;;;;4896995;29;20056;-90
2022/12/25 11:30:00;;;;;;;25.95;19.52;;;16.30;99.90;;;;;;4878550;29;20032;-92
2022/12/25 11:32:30;;;;;;;18.77;13.63;;;16.50;99.90;;;;;;4869638;29;20032;-91
2022/12/25 11:34:58;;;;;;;23.20;15.68;;;16.50;99.90;;;;;;4883880;29;20052;-92
2022/12/25 11:37:49;;;;;;;25.65;16.00;;;16.40;99.90;;;;;;4869374;29;20029;-92
2022/12/25 11:41:03;;;;;;;28.45;18.38;;;16.40;99.90;;;;;;4869225;29;20033;-92
2022/12/25 11:43:45;;;;;;;20.83;16.60;;;16.30;99.90;;;;;;4866734;29;20151;-92
2022/12/25 11:46:40;;;;;;;19.23;15.77;;;16.30;99.90;;;;;;4874605;29;20036;-93
2022/12/25 11:49:15;;;;;;;13.07;11.68;;;16.40;99.90;;;;;;4844400;29;20018;-93
2022/12/25 11:51:49;;;;;;;13.48;12.07;;;16.40;99.90;;;;;;4835069;29;20034;-92
2022/12/25 11:54:30;;;;;;;15.13;12.93;;;16.40;99.90;;;;;;4828879;29;20038;-93
2022/12/25 11:57:02;;;;;;;14.60;12.57;;;16.50;99.90;;;;;;4828504;29;20034;-91
2022/12/25 11:59:51;;;;;;;16.65;13.25;;;16.40;99.90;;;;;;4828509;29;20053;-92
2022/12/25 12:02:37;;;;;;;13.65;12.45;;;16.40;99.90;;;;;;4828648;29;20049;-92
2022/12/25 12:05:28;;;;;;;15.05;12.65;;;16.40;99.90;;;;;;4828414;29;20034;-92
2022/12/25 12:07:58;;;;;;;12.98;11.77;;;16.50;99.90;;;;;;4828212;29;20041;-93
2022/12/25 12:11:14;;;;;;;16.98;11.85;;;16.50;99.90;;;;;;4828288;29;20496;-94
2022/12/25 12:14:00;;;;;;;17.25;13.82;;;16.50;99.90;;;;;;4756510;30;20182;-92
2022/12/25 12:16:27;;;;;;;12.38;11.27;;;16.40;99.90;;;;;;4828247;29;20030;-91
2022/12/25 12:18:53;;;;;;;13.43;12.13;;;16.40;99.90;;;;;;4828376;29;20037;-93
2022/12/25 12:21:29;;;;;;;14.50;11.85;;;16.40;99.90;;;;;;4828222;29;20463;-92
2022/12/25 12:24:21;;;;;;;14.57;12.57;;;16.30;99.90;;;;;;4828436;29;20032;-92
2022/12/25 12:27:24;;;;;;;12.85;11.65;;;16.30;99.90;;;;;;4878014;29;20051;-94
2022/12/25 12:29:56;;;;;;;15.57;11.43;;;16.40;99.90;;;;;;4868726;29;20092;-93
2022/12/25 12:32:50;;;;;;;15.82;12.20;;;16.40;99.90;;;;;;4884047;29;20072;-91
2022/12/25 12:35:21;;;;;;;12.43;11.23;;;16.30;99.90;;;;;;4870688;29;20080;-93
2022/12/25 12:38:06;;;;;;;12.88;11.57;;;16.30;99.90;;;;;;4885893;29;20285;-92
2022/12/25 12:40:38;;;;;;;14.65;12.38;;;16.40;99.90;;;;;;4868368;29;20115;-92
2022/12/25 12:43:23;;;;;;;13.00;11.70;;;16.40;99.90;;;;;;4868102;29;20108;-92
2022/12/25 12:46:16;;;;;;;13.73;11.95;;;16.30;99.90;;;;;;4867654;29;20032;-91
2022/12/25 12:48:47;;;;;;;14.95;12.70;;;16.40;99.90;;;;;;4883703;29;20180;-92
2022/12/25 12:51:34;;;;;;;13.02;11.82;;;16.40;99.90;;;;;;4867937;29;20030;-92
2022/12/25 12:54:26;;;;;;;13.70;12.40;;;16.30;99.90;;;;;;4883436;29;20044;-92
2022/12/25 12:57:06;;;;;;;12.10;11.10;;;16.40;99.90;;;;;;4884004;29;20045;-91
2022/12/25 12:59:45;;;;;;;12.10;11.02;;;16.20;99.90;;;;;;5044621;23;20117;-91
2022/12/25 13:02:24;;;;;;;11.85;10.82;;;16.30;99.90;;;;;;4886364;29;20044;-92
2022/12/25 13:05:17;;;;;;;13.18;11.38;;;16.30;99.90;;;;;;4886483;29;20039;-92
2022/12/25 13:07:58;;;;;;;12.00;10.73;;;16.20;99.90;;;;;;4902118;29;20039;-91
2022/12/25 13:10:32;;;;;;;12.57;11.35;;;16.10;99.90;;;;;;4875453;29;20398;-94
2022/12/25 13:13:09;;;;;;;11.50;10.50;;;16.10;99.90;;;;;;4883719;29;20483;-92
2022/12/25 13:15:37;;;;;;;12.00;10.90;;;16.10;99.90;;;;;;4884974;29;20037;-92
2022/12/25 13:18:09;;;;;;;14.63;11.57;;;16.20;99.90;;;;;;4898149;29;20084;-92
2022/12/25 13:21:00;;;;;;;12.13;11.05;;;16.20;99.90;;;;;;4889774;29;20037;-93
2022/12/25 13:23:35;;;;;;;13.32;11.13;;;16.10;99.90;;;;;;4867869;29;20136;-92
2022/12/25 13:26:10;;;;;;;12.73;11.52;;;16.20;99.90;;;;;;4883219;29;20036;-93
2022/12/25 13:28:37;;;;;;;13.90;11.68;;;16.10;99.90;;;;;;4882812;29;20465;-93
2022/12/25 13:31:16;;;;;;;11.88;10.65;;;16.10;99.90;;;;;;4882782;29;20051;-93
2022/12/25 13:34:24;;;;;;;15.80;11.48;;;16.10;99.90;;;;;;4882587;29;20553;-94
2022/12/25 13:36:51;;;;;;;12.63;11.20;;;16.10;99.90;;;;;;4867371;29;20048;-93
2022/12/25 13:39:18;;;;;;;14.50;11.63;;;16.10;99.90;;;;;;4882621;29;20029;-93
2022/12/25 13:42:05;;;;;;;11.77;10.73;;;16.10;99.90;;;;;;4882728;29;20115;-92
2022/12/25 13:44:52;;;;;;;15.35;10.75;;;16.00;99.90;;;;;;4883038;29;20032;-92
2022/12/25 13:47:38;;;;;;;12.73;11.05;;;16.00;99.90;;;;;;4882936;29;20028;-93
2022/12/25 13:50:21;;;;;;;11.73;10.60;;;15.90;99.90;;;;;;4882469;29;20401;-92
2022/12/25 13:52:48;;;;;;;12.48;10.63;;;15.80;99.90;;;;;;4882565;29;20033;-93
2022/12/25 13:55:25;;;;;;;11.07;10.18;;;15.90;99.90;;;;;;4882691;29;20020;-93
2022/12/25 13:57:58;;;;;;;11.25;10.18;;;15.80;99.90;;;;;;4882020;29;20401;-94
2022/12/25 14:00:52;;;;;;;14.18;10.57;;;15.80;99.90;;;;;;4883034;29;20414;-93
2022/12/25 14:03:24;;;;;;;12.93;10.70;;;15.70;99.90;;;;;;4882520;29;20197;-93
2022/12/25 14:05:59;;;;;;;11.30;10.18;;;15.70;99.90;;;;;;4882278;29;20371;-92
2022/12/25 14:08:31;;;;;;;11.73;10.40;;;15.70;99.90;;;;;;4882279;29;20068;-93
2022/12/25 14:11:02;;;;;;;12.63;11.07;;;15.60;99.90;;;;;;4882218;29;20619;-93
2022/12/25 14:13:35;;;;;;;11.85;10.60;;;15.60;99.90;;;;;;4882872;29;20068;-93
2022/12/25 14:16:03;;;;;;;13.48;11.82;;;15.60;99.90;;;;;;4882882;29;20029;-92
2022/12/25 14:18:30;;;;;;;17.52;13.32;;;15.60;99.90;;;;;;4882771;29;20037;-90
2022/12/25 14:21:07;;;;;;;15.82;12.90;;;15.50;99.90;;;;;;4882707;29;20053;-92
2022/12/25 14:23:48;;;;;;;14.65;11.63;;;15.50;99.90;;;;;;4882019;29;20032;-92
2022/12/25 14:26:26;;;;;;;15.77;11.63;;;15.50;99.90;;;;;;4882323;29;20048;-93
2022/12/25 14:29:07;;;;;;;15.63;11.73;;;15.50;99.90;;;;;;4882468;29;20036;-93
2022/12/25 14:31:38;;;;;;;13.73;10.98;;;15.40;99.90;;;;;;4882193;29;20135;-93
2022/12/25 14:34:21;;;;;;;14.50;11.30;;;15.30;99.90;;;;;;4882544;29;20482;-95
2022/12/25 14:36:49;;;;;;;14.00;11.50;;;15.20;99.90;;;;;;4882660;29;20028;-93
2022/12/25 14:39:36;;;;;;;16.42;11.48;;;15.20;99.90;;;;;;4882850;29;20390;-94
2022/12/25 14:42:24;;;;;;;13.63;12.02;;;15.20;99.90;;;;;;4882274;29;20516;-93
2022/12/25 14:45:21;;;;;;;14.77;11.73;;;15.10;99.90;;;;;;4882036;29;20088;-93
2022/12/25 14:47:54;;;;;;;15.48;12.00;;;15.10;99.90;;;;;;4882261;29;20033;-93
2022/12/25 14:50:33;;;;;;;16.70;11.77;;;15.00;99.90;;;;;;4882231;29;20115;-92
2022/12/25 14:53:00;;;;;;;20.88;13.43;;;15.00;99.90;;;;;;4882496;29;20040;-93
2022/12/25 14:55:29;;;;;;;20.98;13.85;;;14.90;99.90;;;;;;4882334;29;20140;-93
2022/12/25 14:58:08;;;;;;;18.25;13.68;;;14.90;99.90;;;;;;4882777;29;20032;-93
2022/12/25 15:00:54;;;;;;;18.23;14.15;;;14.90;99.90;;;;;;4895342;29;20079;-96
2022/12/25 15:03:39;;;;;;;18.55;13.75;;;14.80;99.90;;;;;;4864912;29;20054;-93
2022/12/25 15:06:18;;;;;;;17.88;13.98;;;14.70;99.90;;;;;;4849343;29;20038;-93
2022/12/25 15:09:05;;;;;;;25.08;16.48;;;14.70;99.90;;;;;;4843423;29;20114;-93
2022/12/25 15:11:32;;;;;;;17.73;14.20;;;14.60;99.90;;;;;;4844865;29;20037;-92
2022/12/25 15:13:59;;;;;;;17.88;14.15;;;14.50;99.90;;;;;;4844614;29;20480;-93
2022/12/25 15:16:46;;;;;;;18.58;14.38;;;14.40;99.90;;;;;;4844172;29;20042;-92
2022/12/25 15:19:21;;;;;;;22.15;15.82;;;14.30;99.90;;;;;;4844719;29;20116;-93
2022/12/25 15:21:47;;;;;;;;;;;14.20;99.90;;;;;;4845694;29;20050;-94
2022/12/25 15:24:14;;;;;;;26.75;18.35;;;14.10;99.90;;;;;;4860205;29;19916;-93
2022/12/25 15:26:42;;;;;;;27.95;19.40;;;14.10;99.90;;;;;;4844152;29;20091;-93
2022/12/25 15:29:08;;;;;;;29.35;20.83;;;14.00;99.90;;;;;;4844353;29;20034;-93
2022/12/25 15:31:37;;;;;;;28.40;21.85;;;13.90;99.90;;;;;;4845071;29;20034;-94
2022/12/25 15:34:31;;;;;;;26.75;19.70;;;13.80;99.90;;;;;;4844782;29;20046;-93
2022/12/25 15:36:58;;;;;;;37.07;25.80;;;13.80;99.90;;;;;;4846312;29;20181;-94
2022/12/25 15:39:25;;;;;;;33.80;23.23;;;13.70;99.90;;;;;;4844366;29;20042;-94
2022/12/25 15:42:10;;;;;;;32.80;23.13;;;13.60;99.90;;;;;;4867086;29;20037;-93
2022/12/25 15:44:36;;;;;;;34.47;24.58;;;13.60;99.90;;;;;;4885251;29;20127;-94
2022/12/25 15:47:03;;;;;;;38.50;26.02;;;13.50;99.90;;;;;;4885669;29;20035;-94
2022/12/25 15:49:29;;;;;;;33.28;23.20;;;13.50;99.90;;;;;;4885256;29;20139;-94
2022/12/25 15:51:55;;;;;;;34.03;23.83;;;13.50;99.90;;;;;;4885725;29;20119;-93
2022/12/25 15:54:22;;;;;;;33.17;22.98;;;13.40;99.90;;;;;;4885390;29;20029;-93
2022/12/25 15:56:58;;;;;;;32.40;24.88;;;13.40;99.90;;;;;;4885435;29;20035;-94
2022/12/25 15:59:25;;;;;;;34.70;23.92;;;13.30;99.90;;;;;;4886522;29;20044;-94
2022/12/25 16:01:56;;;;;;;43.90;29.83;;;13.20;99.90;;;;;;4894682;29;20041;-93
2022/12/25 16:04:25;;;;;;;41.78;28.70;;;13.10;99.90;;;;;;4889720;29;20065;-94
2022/12/25 16:06:52;;;;;;;41.17;29.10;;;13.00;99.90;;;;;;4884850;29;20036;-94
2022/12/25 16:09:19;;;;;;;44.53;31.45;;;13.00;99.90;;;;;;4884901;29;20032;-94
2022/12/25 16:11:49;;;;;;;43.80;29.65;;;12.90;99.90;;;;;;4891060;29;20033;-94
2022/12/25 16:14:30;;;;;;;48.55;32.20;;;12.80;99.90;;;;;;4903217;29;20033;-94
2022/12/25 16:17:05;;;;;;;48.75;31.30;;;12.70;99.90;;;;;;5008960;23;20060;31
2022/12/25 16:19:31;;;;;;;47.15;31.35;;;12.70;99.90;;;;;;4899333;29;20563;-93
2022/12/25 16:21:58;;;;;;;54.63;33.00;;;12.60;99.90;;;;;;4900576;29;20032;-94
2022/12/25 16:24:25;;;;;;;47.60;33.88;;;12.50;99.90;;;;;;4899738;29;20067;-93
2022/12/25 16:26:51;;;;;;;47.58;33.88;;;12.50;99.90;;;;;;4884295;29;20036;-94
2022/12/25 16:33:00;;;;;;;53.92;36.45;;;12.30;99.90;;;;;;5125795;23;20025;-94
2022/12/25 16:35:27;;;;;;;53.70;36.33;;;12.20;99.90;;;;;;4887575;29;20494;-94
2022/12/25 16:37:54;;;;;;;49.05;35.33;;;12.20;99.90;;;;;;4903598;29;20119;-95
2022/12/25 16:40:20;;;;;;;52.50;36.53;;;12.10;99.90;;;;;;4887636;29;20029;-94
2022/12/25 16:42:47;;;;;;;50.53;35.35;;;12.00;99.90;;;;;;4904129;29;20130;-94
2022/12/25 16:45:14;;;;;;;54.08;38.17;;;12.00;99.90;;;;;;4907166;29;20024;-95
2022/12/25 16:47:41;;;;;;;66.78;43.10;;;11.90;99.90;;;;;;4925770;29;20024;-93
2022/12/25 16:50:08;;;;;;;61.78;41.60;;;12.00;99.90;;;;;;4911627;29;20040;-93
2022/12/25 16:52:35;;;;;;;67.30;42.30;;;12.00;99.90;;;;;;4904363;29;20367;-94
2022/12/25 16:55:03;;;;;;;68.22;44.08;;;12.00;99.90;;;;;;4904030;29;20039;-95
2022/12/25 16:57:32;;;;;;;76.35;48.03;;;12.00;99.90;;;;;;4902715;29;20036;-93
2022/12/25 16:59:58;;;;;;;81.80;51.33;;;12.00;99.90;;;;;;4902630;29;20036;-94
2022/12/25 17:02:25;;;;;;;80.82;52.28;;;12.10;99.90;;;;;;4902558;29;20061;-94
2022/12/25 17:04:53;;;;;;;66.38;45.88;;;12.10;99.90;;;;;;4918880;29;20078;-93
2022/12/25 17:07:20;;;;;;;73.80;46.65;;;12.00;99.90;;;;;;4887441;29;20032;-94
2022/12/25 17:09:48;;;;;;;77.43;49.25;;;12.00;99.90;;;;;;4902910;29;20545;-94
2022/12/25 17:12:15;;;;;;;75.80;49.38;;;11.90;99.90;;;;;;4903217;29;20032;-94
2022/12/25 17:14:42;;;;;;;94.70;59.80;;;11.80;99.90;;;;;;4903671;29;20028;-93
2022/12/25 17:17:08;;;;;;;82.40;55.55;;;11.80;99.90;;;;;;4887283;29;20032;-94
2022/12/25 17:19:35;;;;;;;81.93;54.13;;;11.80;99.90;;;;;;4902890;29;20128;-94
2022/12/25 17:22:02;;;;;;;85.38;54.13;;;11.80;99.90;;;;;;4918875;29;20167;-94
2022/12/25 17:24:28;;;;;;;94.57;58.65;;;11.70;99.90;;;;;;4902299;29;20028;-94
2022/12/25 17:26:55;;;;;;;91.80;59.03;;;11.70;99.90;;;;;;4900074;29;20032;-94
2022/12/25 17:29:23;;;;;;;83.38;53.58;;;11.70;99.90;;;;;;4898225;29;20032;-93
2022/12/25 17:31:51;;;;;;;91.35;59.78;;;11.70;99.90;;;;;;4902802;29;20068;-94
2022/12/25 17:34:17;;;;;;;93.80;60.78;;;11.60;99.90;;;;;;4902602;29;20052;-94
2022/12/25 17:36:44;;;;;;;100.72;64.03;;;11.50;99.90;;;;;;4902698;29;20393;-94
2022/12/25 17:39:11;;;;;;;102.32;62.35;;;11.50;99.90;;;;;;4902847;29;20107;-94
2022/12/25 17:41:41;;;;;;;109.20;65.95;;;11.60;99.90;;;;;;4903794;29;20047;-94
2022/12/25 17:44:09;;;;;;;98.05;62.70;;;11.50;99.90;;;;;;4925851;29;20127;-93
2022/12/25 17:46:36;;;;;;;105.70;68.78;;;11.50;99.90;;;;;;4920314;29;20071;-93
2022/12/25 17:49:02;;;;;;;101.70;66.32;;;11.50;99.90;;;;;;4903242;29;20028;-93